sensor_id;sensor_type;location;lat;lon;timestamp;P1;durP1;ratioP1;P2;durP2;ratioP2
29314;SDS011;16320;53.954;9.506;2022-10-22T00:00:41;136.25;;;42.53;;
29314;SDS011;16320;53.954;9.506;2022-10-22T00:09:27;140.15;;;44.22;;
29314;SDS011;16320;53.954;9.506;2022-10-22T00:51:50;133.57;;;39.65;;
29314;SDS011;16320;53.954;9.506;2022-10-22T00:55:41;126.40;;;41.03;;
29314;SDS011;16320;53.954;9.506;2022-10-22T01:42:31;169.18;;;46.00;;
29314;SDS011;16320;53.954;9.506;2022-10-22T01:46:52;159.73;;;46.20;;
29314;SDS011;16320;53.954;9.506;2022-10-22T01:51:05;171.38;;;46.70;;
29314;SDS011;16320;53.954;9.506;2022-10-22T01:55:06;180.20;;;48.25;;
29314;SDS011;16320;53.954;9.506;2022-10-22T02:03:51;178.48;;;47.92;;
29314;SDS011;16320;53.954;9.506;2022-10-22T02:08:38;208.15;;;49.60;;
29314;SDS011;16320;53.954;9.506;2022-10-22T02:45:04;251.73;;;53.72;;
29314;SDS011;16320;53.954;9.506;2022-10-22T02:49:06;290.70;;;53.28;;
29314;SDS011;16320;53.954;9.506;2022-10-22T02:53:08;258.17;;;53.15;;
29314;SDS011;16320;53.954;9.506;2022-10-22T03:00:38;194.50;;;48.05;;
29314;SDS011;16320;53.954;9.506;2022-10-22T03:04:02;224.70;;;51.17;;
29314;SDS011;16320;53.954;9.506;2022-10-22T03:07:42;212.77;;;49.60;;
29314;SDS011;16320;53.954;9.506;2022-10-22T03:11:14;253.55;;;53.00;;
29314;SDS011;16320;53.954;9.506;2022-10-22T03:15:12;257.92;;;52.17;;
29314;SDS011;16320;53.954;9.506;2022-10-22T03:23:00;246.43;;;52.10;;
29314;SDS011;16320;53.954;9.506;2022-10-22T03:27:16;262.13;;;51.40;;
29314;SDS011;16320;53.954;9.506;2022-10-22T03:31:47;282.77;;;54.08;;
29314;SDS011;16320;53.954;9.506;2022-10-22T03:40:53;292.88;;;54.17;;
29314;SDS011;16320;53.954;9.506;2022-10-22T03:44:18;299.85;;;57.40;;
29314;SDS011;16320;53.954;9.506;2022-10-22T03:47:53;299.38;;;56.13;;
29314;SDS011;16320;53.954;9.506;2022-10-22T03:51:21;314.33;;;58.45;;
29314;SDS011;16320;53.954;9.506;2022-10-22T03:55:13;332.98;;;53.20;;
29314;SDS011;16320;53.954;9.506;2022-10-22T03:59:00;332.75;;;55.28;;
29314;SDS011;16320;53.954;9.506;2022-10-22T04:16:04;345.25;;;53.83;;
29314;SDS011;16320;53.954;9.506;2022-10-22T04:24:07;301.83;;;50.80;;
29314;SDS011;16320;53.954;9.506;2022-10-22T04:28:04;353.33;;;51.50;;
29314;SDS011;16320;53.954;9.506;2022-10-22T04:35:45;298.15;;;52.55;;
29314;SDS011;16320;53.954;9.506;2022-10-22T04:39:53;351.35;;;54.67;;
29314;SDS011;16320;53.954;9.506;2022-10-22T04:43:24;355.45;;;56.15;;
29314;SDS011;16320;53.954;9.506;2022-10-22T04:47:00;373.73;;;55.55;;
29314;SDS011;16320;53.954;9.506;2022-10-22T04:50:32;360.58;;;56.75;;
29314;SDS011;16320;53.954;9.506;2022-10-22T04:53:58;396.63;;;59.08;;
29314;SDS011;16320;53.954;9.506;2022-10-22T04:57:45;390.60;;;57.35;;
29314;SDS011;16320;53.954;9.506;2022-10-22T05:04:43;435.17;;;60.90;;
29314;SDS011;16320;53.954;9.506;2022-10-22T05:55:33;391.73;;;58.88;;
29314;SDS011;16320;53.954;9.506;2022-10-22T06:00:14;384.60;;;60.30;;
29314;SDS011;16320;53.954;9.506;2022-10-22T07:11:32;304.83;;;56.97;;
29314;SDS011;16320;53.954;9.506;2022-10-22T07:14:56;293.40;;;56.70;;
29314;SDS011;16320;53.954;9.506;2022-10-22T07:18:22;262.65;;;55.53;;
29314;SDS011;16320;53.954;9.506;2022-10-22T07:22:32;243.88;;;55.72;;
29314;SDS011;16320;53.954;9.506;2022-10-22T07:26:03;285.50;;;55.33;;
29314;SDS011;16320;53.954;9.506;2022-10-22T07:29:44;270.90;;;55.85;;
29314;SDS011;16320;53.954;9.506;2022-10-22T07:33:35;275.38;;;53.50;;
29314;SDS011;16320;53.954;9.506;2022-10-22T07:37:08;264.73;;;53.60;;
29314;SDS011;16320;53.954;9.506;2022-10-22T07:40:46;289.88;;;55.05;;
29314;SDS011;16320;53.954;9.506;2022-10-22T07:45:13;237.93;;;54.00;;
29314;SDS011;16320;53.954;9.506;2022-10-22T07:49:30;280.42;;;54.38;;
29314;SDS011;16320;53.954;9.506;2022-10-22T07:53:03;280.80;;;53.70;;
29314;SDS011;16320;53.954;9.506;2022-10-22T07:56:30;279.65;;;55.38;;
29314;SDS011;16320;53.954;9.506;2022-10-22T08:04:53;249.10;;;52.90;;
29314;SDS011;16320;53.954;9.506;2022-10-22T08:08:25;237.45;;;53.33;;
29314;SDS011;16320;53.954;9.506;2022-10-22T08:21:29;258.30;;;53.47;;
29314;SDS011;16320;53.954;9.506;2022-10-22T08:41:16;236.50;;;54.10;;
29314;SDS011;16320;53.954;9.506;2022-10-22T09:09:21;205.75;;;56.65;;
29314;SDS011;16320;53.954;9.506;2022-10-22T09:26:17;188.68;;;54.58;;
29314;SDS011;16320;53.954;9.506;2022-10-22T09:29:32;177.77;;;50.08;;
29314;SDS011;16320;53.954;9.506;2022-10-22T09:58:45;110.70;;;36.10;;
29314;SDS011;16320;53.954;9.506;2022-10-22T10:23:18;52.42;;;19.38;;
29314;SDS011;16320;53.954;9.506;2022-10-22T10:49:31;28.95;;;11.10;;
29314;SDS011;16320;53.954;9.506;2022-10-22T10:53:21;21.10;;;10.30;;
29314;SDS011;16320;53.954;9.506;2022-10-22T11:08:30;18.17;;;9.18;;
29314;SDS011;16320;53.954;9.506;2022-10-22T11:11:50;20.40;;;9.60;;
29314;SDS011;16320;53.954;9.506;2022-10-22T11:15:30;19.42;;;10.18;;
29314;SDS011;16320;53.954;9.506;2022-10-22T11:23:05;13.88;;;8.52;;
29314;SDS011;16320;53.954;9.506;2022-10-22T11:32:01;13.73;;;8.63;;
29314;SDS011;16320;53.954;9.506;2022-10-22T11:35:14;18.35;;;9.27;;
29314;SDS011;16320;53.954;9.506;2022-10-22T11:38:36;16.85;;;9.23;;
29314;SDS011;16320;53.954;9.506;2022-10-22T11:41:57;25.77;;;9.80;;
29314;SDS011;16320;53.954;9.506;2022-10-22T11:45:41;18.15;;;7.70;;
29314;SDS011;16320;53.954;9.506;2022-10-22T11:49:27;16.70;;;8.00;;
29314;SDS011;16320;53.954;9.506;2022-10-22T12:31:27;16.90;;;9.27;;
29314;SDS011;16320;53.954;9.506;2022-10-22T12:39:40;20.38;;;9.18;;
29314;SDS011;16320;53.954;9.506;2022-10-22T12:48:16;18.50;;;9.43;;
29314;SDS011;16320;53.954;9.506;2022-10-22T12:52:43;22.52;;;10.27;;
29314;SDS011;16320;53.954;9.506;2022-10-22T12:56:20;14.63;;;10.05;;
29314;SDS011;16320;53.954;9.506;2022-10-22T13:00:25;21.25;;;12.60;;
29314;SDS011;16320;53.954;9.506;2022-10-22T13:04:31;23.40;;;12.13;;
29314;SDS011;16320;53.954;9.506;2022-10-22T15:08:41;20.65;;;8.43;;
29314;SDS011;16320;53.954;9.506;2022-10-22T15:11:48;27.10;;;8.88;;
29314;SDS011;16320;53.954;9.506;2022-10-22T15:14:44;20.08;;;8.20;;
29314;SDS011;16320;53.954;9.506;2022-10-22T15:17:52;17.77;;;7.97;;
29314;SDS011;16320;53.954;9.506;2022-10-22T15:21:00;23.83;;;9.55;;
29314;SDS011;16320;53.954;9.506;2022-10-22T15:24:12;18.52;;;9.20;;
29314;SDS011;16320;53.954;9.506;2022-10-22T15:27:33;19.30;;;7.75;;
29314;SDS011;16320;53.954;9.506;2022-10-22T15:30:38;27.63;;;9.70;;
29314;SDS011;16320;53.954;9.506;2022-10-22T15:33:44;25.40;;;9.32;;
29314;SDS011;16320;53.954;9.506;2022-10-22T15:37:06;30.48;;;11.05;;
29314;SDS011;16320;53.954;9.506;2022-10-22T15:40:21;19.83;;;7.70;;
29314;SDS011;16320;53.954;9.506;2022-10-22T15:48:26;17.88;;;8.15;;
29314;SDS011;16320;53.954;9.506;2022-10-22T15:56:39;22.00;;;11.20;;
29314;SDS011;16320;53.954;9.506;2022-10-22T16:05:14;20.05;;;6.97;;
29314;SDS011;16320;53.954;9.506;2022-10-22T16:09:14;21.50;;;8.55;;
29314;SDS011;16320;53.954;9.506;2022-10-22T16:12:31;19.48;;;7.70;;
29314;SDS011;16320;53.954;9.506;2022-10-22T16:16:51;16.65;;;7.13;;
29314;SDS011;16320;53.954;9.506;2022-10-22T16:20:54;21.70;;;10.10;;
29314;SDS011;16320;53.954;9.506;2022-10-22T16:28:40;18.08;;;8.13;;
29314;SDS011;16320;53.954;9.506;2022-10-22T16:31:48;20.27;;;7.63;;
29314;SDS011;16320;53.954;9.506;2022-10-22T16:34:58;15.45;;;8.30;;
29314;SDS011;16320;53.954;9.506;2022-10-22T16:38:26;23.33;;;9.32;;
29314;SDS011;16320;53.954;9.506;2022-10-22T16:41:48;17.95;;;9.90;;
29314;SDS011;16320;53.954;9.506;2022-10-22T16:49:22;20.17;;;12.77;;
29314;SDS011;16320;53.954;9.506;2022-10-22T16:53:35;21.20;;;13.70;;
29314;SDS011;16320;53.954;9.506;2022-10-22T16:57:48;31.27;;;15.88;;
29314;SDS011;16320;53.954;9.506;2022-10-22T17:01:36;25.10;;;14.05;;
29314;SDS011;16320;53.954;9.506;2022-10-22T17:05:35;36.88;;;17.73;;
29314;SDS011;16320;53.954;9.506;2022-10-22T17:09:22;34.83;;;18.23;;
29314;SDS011;16320;53.954;9.506;2022-10-22T17:12:42;35.85;;;19.98;;
29314;SDS011;16320;53.954;9.506;2022-10-22T17:16:14;34.83;;;18.98;;
29314;SDS011;16320;53.954;9.506;2022-10-22T17:24:15;51.97;;;23.02;;
29314;SDS011;16320;53.954;9.506;2022-10-22T17:28:14;43.03;;;21.13;;
29314;SDS011;16320;53.954;9.506;2022-10-22T17:31:27;40.10;;;21.15;;
29314;SDS011;16320;53.954;9.506;2022-10-22T18:10:29;57.70;;;21.63;;
29314;SDS011;16320;53.954;9.506;2022-10-22T18:13:48;62.78;;;24.17;;
29314;SDS011;16320;53.954;9.506;2022-10-22T18:17:03;65.15;;;26.85;;
29314;SDS011;16320;53.954;9.506;2022-10-22T18:20:13;68.93;;;25.15;;
29314;SDS011;16320;53.954;9.506;2022-10-22T18:23:20;62.15;;;24.08;;
29314;SDS011;16320;53.954;9.506;2022-10-22T18:26:29;72.57;;;24.85;;
29314;SDS011;16320;53.954;9.506;2022-10-22T18:29:50;62.42;;;26.70;;
29314;SDS011;16320;53.954;9.506;2022-10-22T18:32:59;75.05;;;26.75;;
29314;SDS011;16320;53.954;9.506;2022-10-22T18:36:13;75.55;;;26.95;;
29314;SDS011;16320;53.954;9.506;2022-10-22T18:39:34;75.03;;;26.00;;
29314;SDS011;16320;53.954;9.506;2022-10-22T18:42:47;71.00;;;28.25;;
29314;SDS011;16320;53.954;9.506;2022-10-22T18:46:20;79.57;;;25.73;;
29314;SDS011;16320;53.954;9.506;2022-10-22T18:49:32;71.40;;;25.50;;
29314;SDS011;16320;53.954;9.506;2022-10-22T18:53:07;69.18;;;25.98;;
29314;SDS011;16320;53.954;9.506;2022-10-22T19:00:21;77.57;;;24.85;;
29314;SDS011;16320;53.954;9.506;2022-10-22T19:03:31;79.85;;;26.48;;
29314;SDS011;16320;53.954;9.506;2022-10-22T19:06:59;83.43;;;25.95;;
29314;SDS011;16320;53.954;9.506;2022-10-22T19:10:18;94.03;;;26.80;;
29314;SDS011;16320;53.954;9.506;2022-10-22T19:13:25;81.28;;;26.83;;
29314;SDS011;16320;53.954;9.506;2022-10-22T19:16:33;88.28;;;26.40;;
29314;SDS011;16320;53.954;9.506;2022-10-22T19:19:40;86.40;;;28.20;;
29314;SDS011;16320;53.954;9.506;2022-10-22T19:22:48;95.85;;;28.45;;
29314;SDS011;16320;53.954;9.506;2022-10-22T19:26:00;90.82;;;28.40;;
29314;SDS011;16320;53.954;9.506;2022-10-22T19:29:19;92.35;;;27.58;;
29314;SDS011;16320;53.954;9.506;2022-10-22T19:32:34;96.60;;;27.50;;
29314;SDS011;16320;53.954;9.506;2022-10-22T19:35:38;79.85;;;26.13;;
29314;SDS011;16320;53.954;9.506;2022-10-22T19:38:53;85.80;;;26.58;;
29314;SDS011;16320;53.954;9.506;2022-10-22T19:41:59;72.15;;;24.50;;
29314;SDS011;16320;53.954;9.506;2022-10-22T19:45:04;86.40;;;25.65;;
29314;SDS011;16320;53.954;9.506;2022-10-22T19:48:20;69.30;;;25.95;;
29314;SDS011;16320;53.954;9.506;2022-10-22T19:51:30;76.20;;;26.15;;
29314;SDS011;16320;53.954;9.506;2022-10-22T19:54:41;79.78;;;25.75;;
29314;SDS011;16320;53.954;9.506;2022-10-22T19:57:51;76.78;;;25.15;;
29314;SDS011;16320;53.954;9.506;2022-10-22T20:00:55;71.15;;;23.92;;
29314;SDS011;16320;53.954;9.506;2022-10-22T20:04:00;61.25;;;21.95;;
29314;SDS011;16320;53.954;9.506;2022-10-22T20:07:04;74.80;;;21.42;;
29314;SDS011;16320;53.954;9.506;2022-10-22T20:10:09;55.85;;;21.05;;
29314;SDS011;16320;53.954;9.506;2022-10-22T20:13:14;69.05;;;22.00;;
29314;SDS011;16320;53.954;9.506;2022-10-22T20:16:20;53.83;;;20.00;;
29314;SDS011;16320;53.954;9.506;2022-10-22T20:19:28;66.57;;;19.60;;
29314;SDS011;16320;53.954;9.506;2022-10-22T20:22:33;54.78;;;20.67;;
29314;SDS011;16320;53.954;9.506;2022-10-22T20:25:55;57.35;;;21.08;;
29314;SDS011;16320;53.954;9.506;2022-10-22T20:29:06;61.63;;;22.52;;
29314;SDS011;16320;53.954;9.506;2022-10-22T20:32:17;80.32;;;23.02;;
29314;SDS011;16320;53.954;9.506;2022-10-22T20:35:28;76.15;;;21.73;;
29314;SDS011;16320;53.954;9.506;2022-10-22T20:38:38;61.53;;;20.77;;
29314;SDS011;16320;53.954;9.506;2022-10-22T20:41:48;61.95;;;20.30;;
29314;SDS011;16320;53.954;9.506;2022-10-22T20:44:55;81.13;;;21.65;;
29314;SDS011;16320;53.954;9.506;2022-10-22T20:48:02;70.50;;;20.65;;
29314;SDS011;16320;53.954;9.506;2022-10-22T20:51:13;70.55;;;20.33;;
29314;SDS011;16320;53.954;9.506;2022-10-22T20:54:19;77.85;;;22.92;;
29314;SDS011;16320;53.954;9.506;2022-10-22T20:57:27;80.38;;;22.13;;
29314;SDS011;16320;53.954;9.506;2022-10-22T21:00:37;83.50;;;22.55;;
29314;SDS011;16320;53.954;9.506;2022-10-22T21:03:43;69.38;;;20.25;;
29314;SDS011;16320;53.954;9.506;2022-10-22T21:06:57;75.70;;;20.98;;
29314;SDS011;16320;53.954;9.506;2022-10-22T21:10:01;77.30;;;21.95;;
29314;SDS011;16320;53.954;9.506;2022-10-22T21:13:07;65.22;;;21.30;;
29314;SDS011;16320;53.954;9.506;2022-10-22T21:16:12;83.80;;;22.45;;
29314;SDS011;16320;53.954;9.506;2022-10-22T21:19:20;88.93;;;22.02;;
29314;SDS011;16320;53.954;9.506;2022-10-22T21:22:26;71.85;;;22.40;;
29314;SDS011;16320;53.954;9.506;2022-10-22T21:25:31;73.75;;;22.40;;
29314;SDS011;16320;53.954;9.506;2022-10-22T21:28:35;77.35;;;23.33;;
29314;SDS011;16320;53.954;9.506;2022-10-22T21:31:40;89.13;;;22.38;;
29314;SDS011;16320;53.954;9.506;2022-10-22T21:34:46;87.57;;;24.25;;
29314;SDS011;16320;53.954;9.506;2022-10-22T21:37:50;83.68;;;27.40;;
29314;SDS011;16320;53.954;9.506;2022-10-22T21:41:07;88.90;;;28.55;;
29314;SDS011;16320;53.954;9.506;2022-10-22T21:44:20;81.78;;;26.58;;
29314;SDS011;16320;53.954;9.506;2022-10-22T21:47:30;89.95;;;27.23;;
29314;SDS011;16320;53.954;9.506;2022-10-22T21:50:41;94.03;;;26.45;;
29314;SDS011;16320;53.954;9.506;2022-10-22T21:53:49;95.10;;;29.67;;
29314;SDS011;16320;53.954;9.506;2022-10-22T21:56:56;85.50;;;28.75;;
29314;SDS011;16320;53.954;9.506;2022-10-22T22:00:03;79.55;;;28.08;;
29314;SDS011;16320;53.954;9.506;2022-10-22T22:03:10;95.80;;;27.77;;
29314;SDS011;16320;53.954;9.506;2022-10-22T22:06:19;89.45;;;26.83;;
29314;SDS011;16320;53.954;9.506;2022-10-22T22:09:35;96.38;;;26.90;;
29314;SDS011;16320;53.954;9.506;2022-10-22T22:12:42;83.70;;;27.02;;
29314;SDS011;16320;53.954;9.506;2022-10-22T22:15:47;90.85;;;27.98;;
29314;SDS011;16320;53.954;9.506;2022-10-22T22:18:55;91.57;;;27.52;;
29314;SDS011;16320;53.954;9.506;2022-10-22T22:22:05;95.50;;;28.55;;
29314;SDS011;16320;53.954;9.506;2022-10-22T22:25:17;88.82;;;26.08;;
29314;SDS011;16320;53.954;9.506;2022-10-22T22:28:45;82.85;;;25.08;;
29314;SDS011;16320;53.954;9.506;2022-10-22T22:31:54;75.18;;;22.40;;
29314;SDS011;16320;53.954;9.506;2022-10-22T22:35:04;82.60;;;22.30;;
29314;SDS011;16320;53.954;9.506;2022-10-22T22:38:10;87.15;;;25.30;;
29314;SDS011;16320;53.954;9.506;2022-10-22T22:41:17;78.72;;;24.60;;
29314;SDS011;16320;53.954;9.506;2022-10-22T22:44:22;68.95;;;22.42;;
29314;SDS011;16320;53.954;9.506;2022-10-22T22:47:28;74.63;;;22.77;;
29314;SDS011;16320;53.954;9.506;2022-10-22T22:50:35;72.68;;;22.38;;
29314;SDS011;16320;53.954;9.506;2022-10-22T22:53:43;84.22;;;24.58;;
29314;SDS011;16320;53.954;9.506;2022-10-22T22:56:51;72.85;;;23.27;;
29314;SDS011;16320;53.954;9.506;2022-10-22T23:00:01;80.82;;;24.80;;
29314;SDS011;16320;53.954;9.506;2022-10-22T23:03:07;91.57;;;24.02;;
29314;SDS011;16320;53.954;9.506;2022-10-22T23:06:12;84.97;;;25.35;;
29314;SDS011;16320;53.954;9.506;2022-10-22T23:09:18;81.95;;;23.40;;
29314;SDS011;16320;53.954;9.506;2022-10-22T23:12:23;75.25;;;23.05;;
29314;SDS011;16320;53.954;9.506;2022-10-22T23:15:28;94.25;;;26.00;;
29314;SDS011;16320;53.954;9.506;2022-10-22T23:18:32;82.45;;;25.48;;
29314;SDS011;16320;53.954;9.506;2022-10-22T23:21:38;73.75;;;23.77;;
29314;SDS011;16320;53.954;9.506;2022-10-22T23:24:44;93.43;;;25.70;;
29314;SDS011;16320;53.954;9.506;2022-10-22T23:27:49;76.25;;;25.02;;
29314;SDS011;16320;53.954;9.506;2022-10-22T23:31:01;84.53;;;24.25;;
29314;SDS011;16320;53.954;9.506;2022-10-22T23:34:11;79.70;;;24.15;;
29314;SDS011;16320;53.954;9.506;2022-10-22T23:37:22;79.65;;;21.88;;
29314;SDS011;16320;53.954;9.506;2022-10-22T23:40:28;74.18;;;21.58;;
29314;SDS011;16320;53.954;9.506;2022-10-22T23:43:35;61.63;;;20.77;;
29314;SDS011;16320;53.954;9.506;2022-10-22T23:46:41;88.35;;;21.15;;
29314;SDS011;16320;53.954;9.506;2022-10-22T23:49:48;77.63;;;20.77;;
29314;SDS011;16320;53.954;9.506;2022-10-22T23:52:53;71.35;;;21.08;;
29314;SDS011;16320;53.954;9.506;2022-10-22T23:56:04;67.88;;;20.58;;
29314;SDS011;16320;53.954;9.506;2022-10-22T23:59:11;71.57;;;20.42;;
